sensor_id;sensor_type;location;lat;lon;timestamp;pressure;altitude;pressure_sealevel;temperature;humidity
40384;BME280;26097;42.366;23.818;2023-02-28T00:01:20;94506.22;;;5.95;100.00
40384;BME280;26097;42.366;23.818;2023-02-28T00:04:21;94507.31;;;5.91;100.00
40384;BME280;26097;42.366;23.818;2023-02-28T00:07:21;94502.06;;;5.93;100.00
40384;BME280;26097;42.366;23.818;2023-02-28T00:10:25;94496.22;;;5.89;100.00
40384;BME280;26097;42.366;23.818;2023-02-28T00:13:26;94491.09;;;5.88;100.00
40384;BME280;26097;42.366;23.818;2023-02-28T00:16:26;94491.19;;;5.86;100.00
40384;BME280;26097;42.366;23.818;2023-02-28T00:19:27;94499.03;;;5.84;100.00
40384;BME280;26097;42.366;23.818;2023-02-28T00:22:27;94517.06;;;5.86;100.00
40384;BME280;26097;42.366;23.818;2023-02-28T00:25:28;94518.81;;;5.85;100.00
40384;BME280;26097;42.366;23.818;2023-02-28T00:28:28;94505.34;;;5.79;100.00
40384;BME280;26097;42.366;23.818;2023-02-28T00:31:29;94502.84;;;5.77;100.00
40384;BME280;26097;42.366;23.818;2023-02-28T00:34:29;94502.31;;;5.70;100.00
40384;BME280;26097;42.366;23.818;2023-02-28T00:37:30;94502.53;;;5.66;100.00
40384;BME280;26097;42.366;23.818;2023-02-28T00:40:30;94495.25;;;5.56;100.00
40384;BME280;26097;42.366;23.818;2023-02-28T00:43:35;94493.84;;;5.49;100.00
40384;BME280;26097;42.366;23.818;2023-02-28T00:46:36;94484.91;;;5.39;100.00
40384;BME280;26097;42.366;23.818;2023-02-28T00:49:36;94488.22;;;5.23;100.00
40384;BME280;26097;42.366;23.818;2023-02-28T00:52:36;94484.03;;;5.21;100.00
40384;BME280;26097;42.366;23.818;2023-02-28T00:55:37;94485.16;;;4.97;100.00
40384;BME280;26097;42.366;23.818;2023-02-28T00:58:37;94472.00;;;4.84;100.00
40384;BME280;26097;42.366;23.818;2023-02-28T01:01:38;94468.50;;;4.66;100.00
40384;BME280;26097;42.366;23.818;2023-02-28T01:04:38;94475.78;;;4.58;100.00
40384;BME280;26097;42.366;23.818;2023-02-28T01:07:39;94482.63;;;4.59;100.00
40384;BME280;26097;42.366;23.818;2023-02-28T01:10:39;94490.22;;;4.62;100.00
40384;BME280;26097;42.366;23.818;2023-02-28T01:13:41;94498.94;;;4.40;100.00
40384;BME280;26097;42.366;23.818;2023-02-28T01:16:41;94492.41;;;4.33;100.00
40384;BME280;26097;42.366;23.818;2023-02-28T01:19:42;94495.66;;;4.18;100.00
40384;BME280;26097;42.366;23.818;2023-02-28T01:22:42;94491.66;;;4.10;100.00
40384;BME280;26097;42.366;23.818;2023-02-28T01:25:43;94490.13;;;4.06;100.00
40384;BME280;26097;42.366;23.818;2023-02-28T01:28:44;94486.06;;;4.00;100.00
40384;BME280;26097;42.366;23.818;2023-02-28T01:31:45;94488.72;;;3.99;100.00
40384;BME280;26097;42.366;23.818;2023-02-28T01:34:45;94485.63;;;3.91;100.00
40384;BME280;26097;42.366;23.818;2023-02-28T01:37:45;94492.44;;;3.72;100.00
40384;BME280;26097;42.366;23.818;2023-02-28T01:40:46;94498.50;;;3.71;100.00
40384;BME280;26097;42.366;23.818;2023-02-28T01:46:47;94503.34;;;3.59;100.00
40384;BME280;26097;42.366;23.818;2023-02-28T01:49:47;94499.44;;;3.48;100.00
40384;BME280;26097;42.366;23.818;2023-02-28T01:52:50;94487.09;;;3.56;100.00
40384;BME280;26097;42.366;23.818;2023-02-28T01:55:52;94477.03;;;3.50;100.00
40384;BME280;26097;42.366;23.818;2023-02-28T01:58:54;94469.69;;;3.62;100.00
40384;BME280;26097;42.366;23.818;2023-02-28T02:01:55;94478.31;;;3.61;100.00
40384;BME280;26097;42.366;23.818;2023-02-28T02:04:59;94483.72;;;3.34;100.00
40384;BME280;26097;42.366;23.818;2023-02-28T02:08:04;94492.72;;;3.23;100.00
40384;BME280;26097;42.366;23.818;2023-02-28T02:11:07;94490.97;;;3.24;100.00
40384;BME280;26097;42.366;23.818;2023-02-28T02:17:47;94511.03;;;3.17;100.00
40384;BME280;26097;42.366;23.818;2023-02-28T02:24:30;94521.69;;;2.85;100.00
40384;BME280;26097;42.366;23.818;2023-02-28T02:31:19;94538.66;;;2.67;100.00
40384;BME280;26097;42.366;23.818;2023-02-28T02:40:38;94559.44;;;2.39;100.00
40384;BME280;26097;42.366;23.818;2023-02-28T02:43:48;94559.44;;;2.39;100.00
40384;BME280;26097;42.366;23.818;2023-02-28T02:46:55;94557.16;;;2.31;100.00
40384;BME280;26097;42.366;23.818;2023-02-28T02:50:01;94560.50;;;2.33;100.00
40384;BME280;26097;42.366;23.818;2023-02-28T02:53:06;94572.56;;;2.31;100.00
40384;BME280;26097;42.366;23.818;2023-02-28T02:56:07;94573.97;;;2.40;100.00
40384;BME280;26097;42.366;23.818;2023-02-28T02:59:11;94571.59;;;2.59;100.00
40384;BME280;26097;42.366;23.818;2023-02-28T03:02:14;94567.16;;;2.63;100.00
40384;BME280;26097;42.366;23.818;2023-02-28T03:05:23;94575.44;;;2.93;100.00
40384;BME280;26097;42.366;23.818;2023-02-28T03:08:26;94569.38;;;3.18;100.00
40384;BME280;26097;42.366;23.818;2023-02-28T03:11:27;94571.56;;;3.50;100.00
40384;BME280;26097;42.366;23.818;2023-02-28T03:17:56;94579.50;;;3.66;100.00
40384;BME280;26097;42.366;23.818;2023-02-28T03:21:23;94585.00;;;3.79;100.00
40384;BME280;26097;42.366;23.818;2023-02-28T03:31:22;94582.22;;;4.04;100.00
40384;BME280;26097;42.366;23.818;2023-02-28T03:34:33;94580.16;;;4.12;100.00
40384;BME280;26097;42.366;23.818;2023-02-28T03:37:37;94581.81;;;4.34;100.00
40384;BME280;26097;42.366;23.818;2023-02-28T03:40:39;94579.72;;;4.42;100.00
40384;BME280;26097;42.366;23.818;2023-02-28T03:43:49;94579.22;;;4.55;100.00
40384;BME280;26097;42.366;23.818;2023-02-28T03:47:04;94579.69;;;4.63;100.00
40384;BME280;26097;42.366;23.818;2023-02-28T03:53:28;94577.25;;;4.79;100.00
40384;BME280;26097;42.366;23.818;2023-02-28T03:56:51;94579.06;;;4.96;100.00
40384;BME280;26097;42.366;23.818;2023-02-28T04:00:19;94571.38;;;5.14;100.00
40384;BME280;26097;42.366;23.818;2023-02-28T04:03:20;94581.84;;;5.11;100.00
40384;BME280;26097;42.366;23.818;2023-02-28T04:06:22;94593.56;;;5.18;100.00
40384;BME280;26097;42.366;23.818;2023-02-28T04:09:22;94587.56;;;5.18;100.00
40384;BME280;26097;42.366;23.818;2023-02-28T04:12:23;94592.81;;;5.16;100.00
40384;BME280;26097;42.366;23.818;2023-02-28T04:15:24;94596.06;;;5.20;100.00
40384;BME280;26097;42.366;23.818;2023-02-28T04:18:24;94603.00;;;5.19;100.00
40384;BME280;26097;42.366;23.818;2023-02-28T04:21:25;94604.38;;;5.26;100.00
40384;BME280;26097;42.366;23.818;2023-02-28T04:24:27;94601.53;;;5.33;100.00
40384;BME280;26097;42.366;23.818;2023-02-28T04:27:28;94605.56;;;5.38;100.00
40384;BME280;26097;42.366;23.818;2023-02-28T04:30:28;94607.09;;;5.42;100.00
40384;BME280;26097;42.366;23.818;2023-02-28T04:33:31;94609.34;;;5.50;100.00
40384;BME280;26097;42.366;23.818;2023-02-28T04:36:32;94609.94;;;5.55;100.00
40384;BME280;26097;42.366;23.818;2023-02-28T04:39:35;94607.19;;;5.58;100.00
40384;BME280;26097;42.366;23.818;2023-02-28T04:42:36;94605.38;;;5.61;100.00
40384;BME280;26097;42.366;23.818;2023-02-28T04:45:36;94603.41;;;5.66;100.00
40384;BME280;26097;42.366;23.818;2023-02-28T04:48:38;94609.13;;;5.72;100.00
40384;BME280;26097;42.366;23.818;2023-02-28T04:51:40;94605.56;;;5.75;100.00
40384;BME280;26097;42.366;23.818;2023-02-28T04:54:40;94597.56;;;5.80;100.00
40384;BME280;26097;42.366;23.818;2023-02-28T04:57:41;94611.88;;;5.87;100.00
40384;BME280;26097;42.366;23.818;2023-02-28T05:00:42;94619.53;;;5.89;100.00
40384;BME280;26097;42.366;23.818;2023-02-28T05:03:43;94620.56;;;5.86;100.00
40384;BME280;26097;42.366;23.818;2023-02-28T05:06:44;94629.38;;;5.82;100.00
40384;BME280;26097;42.366;23.818;2023-02-28T05:09:44;94627.47;;;5.85;100.00
40384;BME280;26097;42.366;23.818;2023-02-28T05:12:45;94619.53;;;5.89;100.00
40384;BME280;26097;42.366;23.818;2023-02-28T05:15:45;94615.22;;;5.89;100.00
40384;BME280;26097;42.366;23.818;2023-02-28T05:18:45;94631.44;;;5.93;100.00
40384;BME280;26097;42.366;23.818;2023-02-28T05:21:54;94634.78;;;5.95;100.00
40384;BME280;26097;42.366;23.818;2023-02-28T05:24:54;94642.56;;;5.95;100.00
40384;BME280;26097;42.366;23.818;2023-02-28T05:27:55;94643.88;;;6.04;100.00
40384;BME280;26097;42.366;23.818;2023-02-28T05:30:55;94646.09;;;6.11;100.00
40384;BME280;26097;42.366;23.818;2023-02-28T05:33:55;94652.94;;;6.12;100.00
40384;BME280;26097;42.366;23.818;2023-02-28T05:36:56;94647.47;;;6.19;100.00
40384;BME280;26097;42.366;23.818;2023-02-28T05:39:56;94653.25;;;6.24;100.00
40384;BME280;26097;42.366;23.818;2023-02-28T05:42:57;94654.63;;;6.31;100.00
40384;BME280;26097;42.366;23.818;2023-02-28T05:45:57;94660.41;;;6.36;100.00
40384;BME280;26097;42.366;23.818;2023-02-28T05:48:57;94661.75;;;6.43;100.00
40384;BME280;26097;42.366;23.818;2023-02-28T05:52:00;94672.28;;;6.40;100.00
40384;BME280;26097;42.366;23.818;2023-02-28T05:55:00;94673.13;;;6.41;100.00
40384;BME280;26097;42.366;23.818;2023-02-28T05:58:00;94677.00;;;6.50;100.00
40384;BME280;26097;42.366;23.818;2023-02-28T06:01:23;94670.00;;;6.52;100.00
40384;BME280;26097;42.366;23.818;2023-02-28T06:04:24;94674.84;;;6.58;100.00
40384;BME280;26097;42.366;23.818;2023-02-28T06:07:24;94681.69;;;6.59;100.00
40384;BME280;26097;42.366;23.818;2023-02-28T06:10:25;94681.63;;;6.61;100.00
40384;BME280;26097;42.366;23.818;2023-02-28T06:13:25;94683.38;;;6.60;100.00
40384;BME280;26097;42.366;23.818;2023-02-28T06:16:27;94692.91;;;6.60;100.00
40384;BME280;26097;42.366;23.818;2023-02-28T06:19:27;94688.94;;;6.52;100.00
40384;BME280;26097;42.366;23.818;2023-02-28T06:22:29;94687.88;;;6.56;100.00
40384;BME280;26097;42.366;23.818;2023-02-28T06:25:31;94694.06;;;6.54;100.00
40384;BME280;26097;42.366;23.818;2023-02-28T06:28:32;94691.91;;;6.62;100.00
40384;BME280;26097;42.366;23.818;2023-02-28T06:31:32;94696.44;;;6.59;100.00
40384;BME280;26097;42.366;23.818;2023-02-28T06:34:33;94700.22;;;6.51;100.00
40384;BME280;26097;42.366;23.818;2023-02-28T06:37:36;94703.94;;;6.46;100.00
40384;BME280;26097;42.366;23.818;2023-02-28T06:40:36;94696.50;;;6.39;100.00
40384;BME280;26097;42.366;23.818;2023-02-28T06:43:40;94695.41;;;6.43;100.00
40384;BME280;26097;42.366;23.818;2023-02-28T06:46:41;94705.78;;;6.43;100.00
40384;BME280;26097;42.366;23.818;2023-02-28T06:49:42;94701.44;;;6.44;100.00
40384;BME280;26097;42.366;23.818;2023-02-28T06:52:42;94697.72;;;6.50;100.00
40384;BME280;26097;42.366;23.818;2023-02-28T06:55:43;94701.50;;;6.42;100.00
40384;BME280;26097;42.366;23.818;2023-02-28T06:58:47;94706.63;;;6.44;100.00
40384;BME280;26097;42.366;23.818;2023-02-28T07:01:48;94712.03;;;6.39;100.00
40384;BME280;26097;42.366;23.818;2023-02-28T07:04:49;94722.53;;;6.36;100.00
40384;BME280;26097;42.366;23.818;2023-02-28T07:07:49;94719.84;;;6.38;100.00
40384;BME280;26097;42.366;23.818;2023-02-28T07:10:54;94717.53;;;6.33;100.00
40384;BME280;26097;42.366;23.818;2023-02-28T07:13:56;94718.28;;;6.35;100.00
40384;BME280;26097;42.366;23.818;2023-02-28T07:16:57;94729.41;;;6.37;100.00
40384;BME280;26097;42.366;23.818;2023-02-28T07:19:57;94730.91;;;6.41;100.00
40384;BME280;26097;42.366;23.818;2023-02-28T07:22:57;94732.03;;;6.36;100.00
40384;BME280;26097;42.366;23.818;2023-02-28T07:25:58;94731.91;;;6.39;100.00
40384;BME280;26097;42.366;23.818;2023-02-28T07:28:58;94724.16;;;6.39;100.00
40384;BME280;26097;42.366;23.818;2023-02-28T07:31:59;94719.25;;;6.33;100.00
40384;BME280;26097;42.366;23.818;2023-02-28T07:34:59;94716.50;;;6.36;100.00
40384;BME280;26097;42.366;23.818;2023-02-28T07:38:00;94732.75;;;6.39;100.00
40384;BME280;26097;42.366;23.818;2023-02-28T07:41:01;94731.78;;;6.42;100.00
40384;BME280;26097;42.366;23.818;2023-02-28T07:44:04;94740.69;;;6.54;100.00
40384;BME280;26097;42.366;23.818;2023-02-28T07:47:09;94734.09;;;6.47;100.00
40384;BME280;26097;42.366;23.818;2023-02-28T07:50:13;94740.97;;;6.48;100.00
40384;BME280;26097;42.366;23.818;2023-02-28T07:53:13;94743.50;;;6.49;100.00
40384;BME280;26097;42.366;23.818;2023-02-28T07:56:14;94739.91;;;6.52;100.00
40384;BME280;26097;42.366;23.818;2023-02-28T07:59:14;94736.78;;;6.45;100.00
40384;BME280;26097;42.366;23.818;2023-02-28T08:02:16;94738.09;;;6.36;100.00
40384;BME280;26097;42.366;23.818;2023-02-28T08:05:17;94727.41;;;6.42;100.00
40384;BME280;26097;42.366;23.818;2023-02-28T08:08:17;94725.88;;;6.38;100.00
40384;BME280;26097;42.366;23.818;2023-02-28T08:11:18;94729.72;;;6.49;100.00
40384;BME280;26097;42.366;23.818;2023-02-28T08:14:18;94720.72;;;6.56;100.00
40384;BME280;26097;42.366;23.818;2023-02-28T08:17:19;94718.72;;;6.61;100.00
40384;BME280;26097;42.366;23.818;2023-02-28T08:20:19;94713.09;;;6.70;100.00
40384;BME280;26097;42.366;23.818;2023-02-28T08:23:20;94713.75;;;6.74;100.00
40384;BME280;26097;42.366;23.818;2023-02-28T08:26:20;94710.19;;;6.77;100.00
40384;BME280;26097;42.366;23.818;2023-02-28T08:29:21;94711.53;;;6.84;100.00
40384;BME280;26097;42.366;23.818;2023-02-28T08:32:21;94716.31;;;6.92;100.00
40384;BME280;26097;42.366;23.818;2023-02-28T08:35:22;94724.78;;;6.95;100.00
40384;BME280;26097;42.366;23.818;2023-02-28T08:38:23;94719.13;;;7.05;100.00
40384;BME280;26097;42.366;23.818;2023-02-28T08:41:24;94720.97;;;7.03;100.00
40384;BME280;26097;42.366;23.818;2023-02-28T08:44:24;94721.88;;;7.02;100.00
40384;BME280;26097;42.366;23.818;2023-02-28T08:47:25;94715.66;;;6.88;100.00
40384;BME280;26097;42.366;23.818;2023-02-28T08:50:25;94719.41;;;6.82;100.00
40384;BME280;26097;42.366;23.818;2023-02-28T08:53:26;94726.91;;;6.87;100.00
40384;BME280;26097;42.366;23.818;2023-02-28T08:56:27;94726.03;;;6.88;100.00
40384;BME280;26097;42.366;23.818;2023-02-28T08:59:28;94724.19;;;6.90;100.00
40384;BME280;26097;42.366;23.818;2023-02-28T09:02:28;94720.00;;;6.88;100.00
40384;BME280;26097;42.366;23.818;2023-02-28T09:05:29;94719.78;;;6.92;100.00
40384;BME280;26097;42.366;23.818;2023-02-28T09:08:30;94716.66;;;6.85;100.00
40384;BME280;26097;42.366;23.818;2023-02-28T09:11:31;94722.00;;;6.82;100.00
40384;BME280;26097;42.366;23.818;2023-02-28T09:14:31;94727.03;;;6.85;100.00
40384;BME280;26097;42.366;23.818;2023-02-28T09:17:32;94733.94;;;6.85;100.00
40384;BME280;26097;42.366;23.818;2023-02-28T09:20:32;94725.50;;;6.81;100.00
40384;BME280;26097;42.366;23.818;2023-02-28T09:23:33;94731.44;;;6.83;100.00
40384;BME280;26097;42.366;23.818;2023-02-28T09:26:33;94733.03;;;6.86;100.00
40384;BME280;26097;42.366;23.818;2023-02-28T09:29:34;94740.78;;;6.86;100.00
40384;BME280;26097;42.366;23.818;2023-02-28T09:32:34;94730.31;;;6.89;100.00
40384;BME280;26097;42.366;23.818;2023-02-28T09:35:35;94731.59;;;6.80;100.00
40384;BME280;26097;42.366;23.818;2023-02-28T09:38:37;94730.44;;;6.86;100.00
40384;BME280;26097;42.366;23.818;2023-02-28T09:41:43;94732.72;;;6.92;100.00
40384;BME280;26097;42.366;23.818;2023-02-28T09:44:50;94727.81;;;7.04;100.00
40384;BME280;26097;42.366;23.818;2023-02-28T09:47:54;94724.78;;;6.95;100.00
40384;BME280;26097;42.366;23.818;2023-02-28T09:54:35;94724.66;;;6.81;100.00
40384;BME280;26097;42.366;23.818;2023-02-28T09:57:40;94726.88;;;6.71;100.00
40384;BME280;26097;42.366;23.818;2023-02-28T10:00:41;94730.38;;;6.70;100.00
40384;BME280;26097;42.366;23.818;2023-02-28T10:10:51;94712.25;;;7.04;100.00
40384;BME280;26097;42.366;23.818;2023-02-28T10:14:05;94708.13;;;7.17;100.00
40384;BME280;26097;42.366;23.818;2023-02-28T10:17:22;94712.41;;;7.34;100.00
40384;BME280;26097;42.366;23.818;2023-02-28T10:20:25;94706.06;;;7.40;100.00
40384;BME280;26097;42.366;23.818;2023-02-28T10:23:35;94706.03;;;7.24;100.00
40384;BME280;26097;42.366;23.818;2023-02-28T10:26:37;94701.50;;;7.11;100.00
40384;BME280;26097;42.366;23.818;2023-02-28T10:29:40;94694.41;;;7.15;100.00
40384;BME280;26097;42.366;23.818;2023-02-28T10:32:49;94696.66;;;7.21;100.00
40384;BME280;26097;42.366;23.818;2023-02-28T10:35:51;94688.41;;;7.31;100.00
40384;BME280;26097;42.366;23.818;2023-02-28T10:38:52;94684.16;;;7.29;100.00
40384;BME280;26097;42.366;23.818;2023-02-28T10:41:52;94686.22;;;7.39;100.00
40384;BME280;26097;42.366;23.818;2023-02-28T10:45:29;94689.09;;;7.50;100.00
40384;BME280;26097;42.366;23.818;2023-02-28T10:48:36;94692.81;;;7.12;100.00
40384;BME280;26097;42.366;23.818;2023-02-28T10:51:38;94690.66;;;7.37;100.00
40384;BME280;26097;42.366;23.818;2023-02-28T10:54:39;94689.41;;;7.44;100.00
40384;BME280;26097;42.366;23.818;2023-02-28T10:57:40;94681.72;;;7.42;100.00
40384;BME280;26097;42.366;23.818;2023-02-28T11:00:41;94672.69;;;7.50;100.00
40384;BME280;26097;42.366;23.818;2023-02-28T11:03:42;94669.34;;;7.48;100.00
40384;BME280;26097;42.366;23.818;2023-02-28T11:06:43;94666.25;;;7.57;100.00
40384;BME280;26097;42.366;23.818;2023-02-28T11:09:55;94660.22;;;7.56;100.00
40384;BME280;26097;42.366;23.818;2023-02-28T11:12:57;94665.00;;;7.48;100.00
40384;BME280;26097;42.366;23.818;2023-02-28T11:16:00;94673.25;;;7.39;100.00
40384;BME280;26097;42.366;23.818;2023-02-28T11:19:03;94669.34;;;7.32;100.00
40384;BME280;26097;42.366;23.818;2023-02-28T11:22:05;94668.31;;;7.34;100.00
40384;BME280;26097;42.366;23.818;2023-02-28T11:25:09;94658.97;;;7.32;100.00
40384;BME280;26097;42.366;23.818;2023-02-28T11:28:29;94658.44;;;7.25;100.00
40384;BME280;26097;42.366;23.818;2023-02-28T11:31:31;94658.22;;;7.29;100.00
40384;BME280;26097;42.366;23.818;2023-02-28T11:34:33;94655.44;;;7.33;100.00
40384;BME280;26097;42.366;23.818;2023-02-28T11:37:33;94654.19;;;7.24;100.00
40384;BME280;26097;42.366;23.818;2023-02-28T11:40:52;94655.34;;;7.02;100.00
40384;BME280;26097;42.366;23.818;2023-02-28T11:47:24;94651.53;;;6.92;100.00
40384;BME280;26097;42.366;23.818;2023-02-28T12:03:44;94638.91;;;6.85;100.00
40384;BME280;26097;42.366;23.818;2023-02-28T12:06:55;94633.97;;;6.81;100.00
40384;BME280;26097;42.366;23.818;2023-02-28T12:10:01;94642.59;;;6.81;100.00
40384;BME280;26097;42.366;23.818;2023-02-28T12:13:29;94638.81;;;6.87;100.00
40384;BME280;26097;42.366;23.818;2023-02-28T12:19:51;94635.47;;;6.85;100.00
40384;BME280;26097;42.366;23.818;2023-02-28T12:29:48;94632.97;;;6.83;100.00
40384;BME280;26097;42.366;23.818;2023-02-28T12:33:12;94640.66;;;6.85;100.00
40384;BME280;26097;42.366;23.818;2023-02-28T12:36:18;94641.94;;;6.94;100.00
40384;BME280;26097;42.366;23.818;2023-02-28T12:39:31;94636.84;;;6.92;100.00
40384;BME280;26097;42.366;23.818;2023-02-28T12:42:38;94635.34;;;6.88;100.00
40384;BME280;26097;42.366;23.818;2023-02-28T12:45:50;94641.56;;;6.84;100.00
40384;BME280;26097;42.366;23.818;2023-02-28T12:49:22;94630.69;;;6.77;100.00
40384;BME280;26097;42.366;23.818;2023-02-28T12:56:16;94613.72;;;6.71;100.00
40384;BME280;26097;42.366;23.818;2023-02-28T13:09:12;94614.13;;;6.64;100.00
40384;BME280;26097;42.366;23.818;2023-02-28T13:12:14;94606.59;;;6.59;100.00
40384;BME280;26097;42.366;23.818;2023-02-28T13:15:25;94602.50;;;6.71;100.00
40384;BME280;26097;42.366;23.818;2023-02-28T13:21:42;94603.38;;;6.71;100.00
40384;BME280;26097;42.366;23.818;2023-02-28T13:24:52;94598.19;;;6.71;100.00
40384;BME280;26097;42.366;23.818;2023-02-28T13:27:54;94602.69;;;6.68;100.00
40384;BME280;26097;42.366;23.818;2023-02-28T13:34:13;94610.38;;;6.69;100.00
40384;BME280;26097;42.366;23.818;2023-02-28T13:40:31;94609.25;;;6.57;100.00
40384;BME280;26097;42.366;23.818;2023-02-28T13:44:11;94602.25;;;6.60;100.00
40384;BME280;26097;42.366;23.818;2023-02-28T13:53:57;94617.56;;;6.47;100.00
40384;BME280;26097;42.366;23.818;2023-02-28T14:06:51;94612.94;;;6.36;100.00
40384;BME280;26097;42.366;23.818;2023-02-28T14:10:02;94606.19;;;6.33;100.00
40384;BME280;26097;42.366;23.818;2023-02-28T14:16:19;94611.09;;;6.38;100.00
40384;BME280;26097;42.366;23.818;2023-02-28T14:19:28;94613.56;;;6.41;100.00
40384;BME280;26097;42.366;23.818;2023-02-28T14:26:02;94610.13;;;6.23;100.00
40384;BME280;26097;42.366;23.818;2023-02-28T14:33:01;94612.34;;;6.31;100.00
40384;BME280;26097;42.366;23.818;2023-02-28T14:36:26;94604.06;;;6.24;100.00
40384;BME280;26097;42.366;23.818;2023-02-28T14:39:28;94597.19;;;6.23;100.00
40384;BME280;26097;42.366;23.818;2023-02-28T14:42:35;94599.34;;;6.14;100.00
40384;BME280;26097;42.366;23.818;2023-02-28T14:45:37;94596.97;;;6.10;100.00
40384;BME280;26097;42.366;23.818;2023-02-28T14:48:38;94602.69;;;6.17;100.00
40384;BME280;26097;42.366;23.818;2023-02-28T14:51:39;94591.50;;;6.16;100.00
40384;BME280;26097;42.366;23.818;2023-02-28T14:54:40;94601.25;;;6.11;100.00
40384;BME280;26097;42.366;23.818;2023-02-28T14:57:53;94600.09;;;6.17;100.00
40384;BME280;26097;42.366;23.818;2023-02-28T15:00:56;94604.06;;;6.24;100.00
40384;BME280;26097;42.366;23.818;2023-02-28T15:04:25;94597.34;;;6.20;100.00
40384;BME280;26097;42.366;23.818;2023-02-28T15:07:27;94603.75;;;6.30;100.00
40384;BME280;26097;42.366;23.818;2023-02-28T15:10:31;94600.00;;;6.36;100.00
40384;BME280;26097;42.366;23.818;2023-02-28T15:16:40;94606.94;;;6.35;100.00
40384;BME280;26097;42.366;23.818;2023-02-28T15:19:45;94617.31;;;6.35;100.00
40384;BME280;26097;42.366;23.818;2023-02-28T15:22:49;94611.09;;;6.38;100.00
40384;BME280;26097;42.366;23.818;2023-02-28T15:25:51;94615.63;;;6.34;100.00
40384;BME280;26097;42.366;23.818;2023-02-28T15:28:58;94612.03;;;6.37;100.00
40384;BME280;26097;42.366;23.818;2023-02-28T15:32:06;94614.72;;;6.35;100.00
40384;BME280;26097;42.366;23.818;2023-02-28T15:38:27;94615.47;;;6.20;100.00
40384;BME280;26097;42.366;23.818;2023-02-28T15:41:30;94615.31;;;6.05;100.00
40384;BME280;26097;42.366;23.818;2023-02-28T15:44:33;94618.81;;;6.04;100.00
40384;BME280;26097;42.366;23.818;2023-02-28T15:47:35;94628.41;;;6.02;100.00
40384;BME280;26097;42.366;23.818;2023-02-28T15:50:36;94629.28;;;6.03;100.00
40384;BME280;26097;42.366;23.818;2023-02-28T15:53:51;94623.44;;;5.97;100.00
40384;BME280;26097;42.366;23.818;2023-02-28T15:56:57;94629.69;;;5.93;100.00
40384;BME280;26097;42.366;23.818;2023-02-28T16:00:01;94635.06;;;5.89;100.00
40384;BME280;26097;42.366;23.818;2023-02-28T16:03:26;94637.34;;;5.77;100.00
40384;BME280;26097;42.366;23.818;2023-02-28T16:06:37;94632.03;;;5.80;100.00
40384;BME280;26097;42.366;23.818;2023-02-28T16:09:38;94635.53;;;5.79;100.00
40384;BME280;26097;42.366;23.818;2023-02-28T16:12:39;94634.91;;;5.74;100.00
40384;BME280;26097;42.366;23.818;2023-02-28T16:15:42;94640.00;;;5.76;100.00
40384;BME280;26097;42.366;23.818;2023-02-28T16:18:43;94641.63;;;5.78;100.00
40384;BME280;26097;42.366;23.818;2023-02-28T16:21:44;94649.69;;;5.72;100.00
40384;BME280;26097;42.366;23.818;2023-02-28T16:24:45;94645.34;;;5.72;100.00
40384;BME280;26097;42.366;23.818;2023-02-28T16:27:48;94642.97;;;5.68;100.00
40384;BME280;26097;42.366;23.818;2023-02-28T16:30:53;94651.25;;;5.75;100.00
40384;BME280;26097;42.366;23.818;2023-02-28T16:33:53;94652.19;;;5.74;100.00
40384;BME280;26097;42.366;23.818;2023-02-28T16:36:54;94646.59;;;5.64;100.00
40384;BME280;26097;42.366;23.818;2023-02-28T16:39:55;94650.81;;;5.66;100.00
40384;BME280;26097;42.366;23.818;2023-02-28T16:42:58;94656.88;;;5.65;100.00
40384;BME280;26097;42.366;23.818;2023-02-28T16:45:59;94661.16;;;5.66;100.00
40384;BME280;26097;42.366;23.818;2023-02-28T16:49:01;94661.00;;;5.69;100.00
40384;BME280;26097;42.366;23.818;2023-02-28T16:52:02;94680.84;;;5.69;100.00
40384;BME280;26097;42.366;23.818;2023-02-28T16:55:03;94677.63;;;5.64;100.00
40384;BME280;26097;42.366;23.818;2023-02-28T16:58:03;94671.50;;;5.66;100.00
40384;BME280;26097;42.366;23.818;2023-02-28T17:01:04;94674.28;;;5.62;100.00
40384;BME280;26097;42.366;23.818;2023-02-28T17:04:05;94672.91;;;5.54;100.00
40384;BME280;26097;42.366;23.818;2023-02-28T17:07:08;94675.34;;;5.57;100.00
40384;BME280;26097;42.366;23.818;2023-02-28T17:13:14;94675.91;;;5.45;100.00
40384;BME280;26097;42.366;23.818;2023-02-28T17:16:23;94674.25;;;5.44;100.00
40384;BME280;26097;42.366;23.818;2023-02-28T17:19:26;94680.47;;;5.40;100.00
40384;BME280;26097;42.366;23.818;2023-02-28T17:22:26;94676.97;;;5.41;100.00
40384;BME280;26097;42.366;23.818;2023-02-28T17:25:26;94675.75;;;5.48;100.00
40384;BME280;26097;42.366;23.818;2023-02-28T17:28:27;94676.63;;;5.49;100.00
40384;BME280;26097;42.366;23.818;2023-02-28T17:31:27;94677.44;;;5.49;100.00
40384;BME280;26097;42.366;23.818;2023-02-28T17:34:28;94687.03;;;5.47;100.00
40384;BME280;26097;42.366;23.818;2023-02-28T17:37:28;94685.34;;;5.46;100.00
40384;BME280;26097;42.366;23.818;2023-02-28T17:40:29;94695.53;;;5.49;100.00
40384;BME280;26097;42.366;23.818;2023-02-28T17:43:29;94680.16;;;5.46;100.00
40384;BME280;26097;42.366;23.818;2023-02-28T17:46:30;94686.91;;;5.50;100.00
40384;BME280;26097;42.366;23.818;2023-02-28T17:49:31;94679.41;;;5.44;100.00
40384;BME280;26097;42.366;23.818;2023-02-28T17:52:31;94678.78;;;5.39;100.00
40384;BME280;26097;42.366;23.818;2023-02-28T17:55:36;94685.50;;;5.43;100.00
40384;BME280;26097;42.366;23.818;2023-02-28T17:58:37;94682.13;;;5.41;100.00
40384;BME280;26097;42.366;23.818;2023-02-28T18:01:38;94674.69;;;5.35;100.00
40384;BME280;26097;42.366;23.818;2023-02-28T18:04:38;94672.16;;;5.33;100.00
40384;BME280;26097;42.366;23.818;2023-02-28T18:07:39;94675.72;;;5.31;100.00
40384;BME280;26097;42.366;23.818;2023-02-28T18:10:40;94678.31;;;5.31;100.00